Time;durP1;ratioP1;P1;durP2;ratioP2;P2;SDS_P1;SDS_P2;PMS_P1;PMS_P2;Temp;Humidity;BMP_temperature;BMP_pressure;BME280_temperature;BME280_humidity;BME280_pressure;Samples;Min_cycle;Max_cycle;Signal;HPM_P1;HPM_P2
2023/08/19 00:01:33;;;;;;;2.83;1.67;;;23.10;99.90;;;;;;5033609;28;20260;-61
2023/08/19 00:04:00;;;;;;;3.28;2.22;;;23.10;99.90;;;;;;5033519;28;20242;-60
2023/08/19 00:06:38;;;;;;;2.70;2.03;;;23.10;99.90;;;;;;5033408;28;20202;-60
2023/08/19 00:09:07;;;;;;;4.75;2.17;;;23.10;99.90;;;;;;5033559;28;20293;-60
2023/08/19 00:11:35;;;;;;;4.30;2.10;;;23.00;99.90;;;;;;5033644;28;20237;-59
2023/08/19 00:14:03;;;;;;;4.35;2.40;;;23.00;99.90;;;;;;5033547;28;20237;-59
2023/08/19 00:16:31;;;;;;;3.88;1.95;;;22.90;99.90;;;;;;5033443;28;20206;-61
2023/08/19 00:18:57;;;;;;;5.13;2.17;;;23.00;99.90;;;;;;5033429;28;20213;-61
2023/08/19 00:21:24;;;;;;;5.00;2.03;;;23.10;99.90;;;;;;5033254;28;20268;-60
2023/08/19 00:23:51;;;;;;;4.43;2.38;;;23.00;99.90;;;;;;5033122;28;20241;-60
2023/08/19 00:26:18;;;;;;;6.72;2.38;;;23.00;99.90;;;;;;5033164;28;20206;-60
2023/08/19 00:28:44;;;;;;;4.00;2.05;;;23.00;99.90;;;;;;5033025;28;20671;-60
2023/08/19 00:31:11;;;;;;;5.05;2.20;;;23.00;99.90;;;;;;5033081;28;20213;-60
2023/08/19 00:33:39;;;;;;;3.15;2.08;;;23.10;99.90;;;;;;5033035;28;20230;-60
2023/08/19 00:36:06;;;;;;;4.75;2.03;;;23.20;99.90;;;;;;5032531;28;20217;-60
2023/08/19 00:38:33;;;;;;;3.97;2.00;;;23.20;99.90;;;;;;5033015;28;20210;-60
2023/08/19 00:40:59;;;;;;;2.80;2.05;;;23.20;99.90;;;;;;5033011;28;20210;-60
2023/08/19 00:43:26;;;;;;;2.75;1.92;;;23.20;99.90;;;;;;5032692;28;20309;-59
2023/08/19 00:45:53;;;;;;;3.05;1.90;;;23.10;99.90;;;;;;5031617;28;20210;-60
2023/08/19 00:48:21;;;;;;;3.40;2.30;;;23.10;99.90;;;;;;5032519;28;20682;-61
2023/08/19 00:50:50;;;;;;;5.07;2.40;;;23.10;99.90;;;;;;5033088;28;20305;-61
2023/08/19 00:53:17;;;;;;;4.88;2.25;;;23.20;99.90;;;;;;5032929;28;20230;-60
2023/08/19 00:55:44;;;;;;;4.60;2.28;;;23.20;99.90;;;;;;5032426;28;20309;-61
2023/08/19 00:58:11;;;;;;;3.95;2.20;;;23.20;99.90;;;;;;5032578;28;20205;-61
2023/08/19 01:00:39;;;;;;;3.35;2.38;;;23.20;99.90;;;;;;5032289;28;20213;-61
2023/08/19 01:03:06;;;;;;;2.45;2.05;;;23.20;99.90;;;;;;5032373;28;20717;-60
2023/08/19 01:05:50;;;;;;;4.32;2.05;;;23.20;99.90;;;;;;5032502;28;20550;-61
2023/08/19 01:08:22;;;;;;;4.88;2.35;;;23.10;99.90;;;;;;5032384;28;20221;-61
2023/08/19 01:10:57;;;;;;;3.40;2.50;;;23.10;99.90;;;;;;5032414;28;20217;-60
2023/08/19 01:13:30;;;;;;;3.45;2.15;;;23.10;99.90;;;;;;5032217;28;20229;-60
2023/08/19 01:16:03;;;;;;;4.47;3.80;;;23.00;99.90;;;;;;5031948;28;20203;-61
2023/08/19 01:18:31;;;;;;;5.05;3.55;;;23.00;99.90;;;;;;5032234;28;20237;-61
2023/08/19 01:20:59;;;;;;;3.28;2.80;;;23.00;99.90;;;;;;5032217;28;20297;-61
2023/08/19 01:23:32;;;;;;;2.92;2.13;;;23.00;99.90;;;;;;5032015;28;20226;-60
2023/08/19 01:26:01;;;;;;;5.00;2.50;;;23.00;99.90;;;;;;5032212;28;20226;-59
2023/08/19 01:28:28;;;;;;;2.90;2.08;;;23.00;99.90;;;;;;5032288;28;20221;-60
2023/08/19 01:30:54;;;;;;;3.38;2.30;;;23.00;99.90;;;;;;5032035;28;20221;-60
2023/08/19 01:33:23;;;;;;;3.53;2.30;;;23.00;99.90;;;;;;5031884;28;20258;-60
2023/08/19 01:35:57;;;;;;;2.45;2.15;;;22.90;99.90;;;;;;5031850;28;20198;-60
2023/08/19 01:38:30;;;;;;;2.50;2.30;;;22.80;99.90;;;;;;5031989;28;20486;-60
2023/08/19 01:40:58;;;;;;;2.80;2.30;;;22.70;99.90;;;;;;5032169;28;20213;-61
2023/08/19 01:43:27;;;;;;;2.72;2.10;;;22.60;99.90;;;;;;5032256;28;20234;-61
2023/08/19 01:45:54;;;;;;;2.90;2.47;;;22.60;99.90;;;;;;5031564;28;20222;-60
2023/08/19 01:48:20;;;;;;;5.82;2.30;;;22.70;99.90;;;;;;5031826;28;20206;-60
2023/08/19 01:50:47;;;;;;;5.22;2.40;;;22.60;99.90;;;;;;5031761;28;20662;-64
2023/08/19 01:53:14;;;;;;;3.33;2.40;;;22.60;99.90;;;;;;5031926;28;20223;-60
2023/08/19 01:55:40;;;;;;;3.60;2.30;;;22.60;99.90;;;;;;5031551;28;20206;-60
2023/08/19 01:58:07;;;;;;;5.40;2.45;;;22.70;99.90;;;;;;5031539;28;20207;-61
2023/08/19 02:00:35;;;;;;;4.22;2.50;;;22.70;99.90;;;;;;5031519;28;20213;-61
2023/08/19 02:03:02;;;;;;;3.42;2.40;;;22.80;99.90;;;;;;5031486;28;20276;-61
2023/08/19 02:05:29;;;;;;;3.33;2.22;;;22.80;99.90;;;;;;5031376;28;20229;-60
2023/08/19 02:07:56;;;;;;;3.83;2.38;;;22.80;99.90;;;;;;5031519;28;20206;-61
2023/08/19 02:10:22;;;;;;;5.35;2.33;;;22.80;99.90;;;;;;5031760;28;20221;-61
2023/08/19 02:12:49;;;;;;;3.35;2.30;;;22.80;99.90;;;;;;5031625;28;20233;-60
2023/08/19 02:15:16;;;;;;;5.57;2.83;;;22.70;99.90;;;;;;5031513;28;20202;-61
2023/08/19 02:17:44;;;;;;;3.85;2.30;;;22.70;99.90;;;;;;5031174;28;20225;-59
2023/08/19 02:20:12;;;;;;;3.00;2.22;;;22.70;99.90;;;;;;5031229;28;20206;-59
2023/08/19 02:22:40;;;;;;;2.53;2.30;;;22.60;99.90;;;;;;5031376;28;20603;-59
2023/08/19 02:25:07;;;;;;;5.20;2.40;;;22.60;99.90;;;;;;5031282;28;20264;-58
2023/08/19 02:27:34;;;;;;;2.55;2.17;;;22.60;99.90;;;;;;5030761;28;20203;-59
2023/08/19 02:30:01;;;;;;;4.15;2.20;;;22.50;99.90;;;;;;5031290;28;20212;-59
2023/08/19 02:32:28;;;;;;;4.47;2.10;;;22.50;99.90;;;;;;5031024;28;20226;-60
2023/08/19 02:34:56;;;;;;;4.35;2.47;;;22.40;99.90;;;;;;5031221;28;20685;-59
2023/08/19 02:37:22;;;;;;;4.95;2.47;;;22.40;99.90;;;;;;5030893;28;20693;-60
2023/08/19 02:39:49;;;;;;;3.47;2.38;;;22.30;99.90;;;;;;5031217;28;20206;-60
2023/08/19 02:42:16;;;;;;;2.80;2.35;;;22.30;99.90;;;;;;5031169;28;20229;-58
2023/08/19 02:44:43;;;;;;;2.80;2.50;;;22.30;99.90;;;;;;5030840;28;20230;-60
2023/08/19 02:47:10;;;;;;;6.32;2.53;;;22.20;99.90;;;;;;5030791;28;20687;-59
2023/08/19 02:49:37;;;;;;;3.85;2.60;;;22.20;99.90;;;;;;5031022;28;20210;-60
2023/08/19 02:52:06;;;;;;;4.32;2.30;;;22.20;99.90;;;;;;5031008;28;20257;-59
2023/08/19 02:54:33;;;;;;;3.70;2.33;;;22.20;99.90;;;;;;5030906;28;20662;-60
2023/08/19 02:56:59;;;;;;;5.38;2.33;;;22.20;99.90;;;;;;5030572;28;20209;-60
2023/08/19 02:59:26;;;;;;;3.25;2.70;;;22.20;99.90;;;;;;5030871;28;20210;-59
2023/08/19 03:01:53;;;;;;;4.25;2.42;;;22.20;99.90;;;;;;5030679;28;20210;-60
2023/08/19 03:04:19;;;;;;;6.28;2.50;;;22.10;99.90;;;;;;5030760;28;20230;-60
2023/08/19 03:06:46;;;;;;;6.00;2.40;;;22.00;99.90;;;;;;5030701;28;20202;-59
2023/08/19 03:09:14;;;;;;;3.25;2.40;;;21.90;99.90;;;;;;5033556;28;20221;-60
2023/08/19 03:11:41;;;;;;;3.45;2.35;;;21.80;99.90;;;;;;5034691;28;20210;-61
2023/08/19 03:14:08;;;;;;;3.80;2.55;;;21.80;99.90;;;;;;5034427;28;20254;-61
2023/08/19 03:16:35;;;;;;;5.18;2.70;;;21.80;99.90;;;;;;5034107;28;20518;-60
2023/08/19 03:19:01;;;;;;;6.20;2.53;;;21.70;99.90;;;;;;5034479;28;20217;-61
2023/08/19 03:21:28;;;;;;;4.47;2.80;;;21.60;99.90;;;;;;5034465;28;20288;-59
2023/08/19 03:23:55;;;;;;;4.28;2.33;;;21.60;99.90;;;;;;5034231;28;20271;-60
2023/08/19 03:26:23;;;;;;;3.90;2.63;;;21.50;99.90;;;;;;5034056;28;20234;-60
2023/08/19 03:28:50;;;;;;;7.35;2.78;;;21.50;99.90;;;;;;5034093;28;20210;-60
2023/08/19 03:31:16;;;;;;;3.47;2.47;;;21.50;99.90;;;;;;5034317;28;20214;-60
2023/08/19 03:33:43;;;;;;;2.85;2.53;;;21.50;99.90;;;;;;5034229;28;20234;-60
2023/08/19 03:36:09;;;;;;;4.85;2.55;;;21.50;99.90;;;;;;5033989;28;20198;-61
2023/08/19 03:38:37;;;;;;;4.88;2.60;;;21.50;99.90;;;;;;5033992;28;20206;-60
2023/08/19 03:41:03;;;;;;;3.35;2.53;;;21.60;99.90;;;;;;5034075;28;20233;-60
2023/08/19 03:43:32;;;;;;;4.25;2.95;;;21.50;99.90;;;;;;5033747;28;20299;-61
2023/08/19 03:45:58;;;;;;;3.00;2.67;;;21.50;99.90;;;;;;5033947;28;21005;-60
2023/08/19 03:48:25;;;;;;;7.88;2.60;;;21.40;99.90;;;;;;5034108;28;20214;-59
2023/08/19 03:50:51;;;;;;;4.05;2.33;;;21.40;99.90;;;;;;5034035;28;20210;-59
2023/08/19 03:53:18;;;;;;;3.55;2.50;;;21.40;99.90;;;;;;5033887;28;20230;-60
2023/08/19 03:55:45;;;;;;;6.05;2.92;;;21.40;99.90;;;;;;5033638;28;20748;-60
2023/08/19 03:58:12;;;;;;;6.25;2.60;;;21.40;99.90;;;;;;5033633;28;20209;-59
2023/08/19 04:00:40;;;;;;;4.45;2.67;;;21.40;99.90;;;;;;5033850;28;20241;-60
2023/08/19 04:03:06;;;;;;;2.85;2.40;;;21.40;99.90;;;;;;5033509;28;20233;-60
2023/08/19 04:05:33;;;;;;;4.05;2.47;;;21.40;99.90;;;;;;5033477;28;20675;-60
2023/08/19 04:07:59;;;;;;;4.65;2.60;;;21.40;99.90;;;;;;5033203;28;20678;-60
2023/08/19 04:10:26;;;;;;;2.83;2.40;;;21.40;99.90;;;;;;5033485;28;20670;-60
2023/08/19 04:12:53;;;;;;;4.85;2.92;;;21.40;99.90;;;;;;5033514;28;20706;-59
2023/08/19 04:15:20;;;;;;;6.10;2.40;;;21.40;99.90;;;;;;5033611;28;20198;-59
2023/08/19 04:17:49;;;;;;;5.25;2.88;;;21.40;99.90;;;;;;5033308;28;20215;-60
2023/08/19 04:20:16;;;;;;;2.80;2.60;;;21.50;99.90;;;;;;5032196;28;20210;-59
2023/08/19 04:22:44;;;;;;;3.70;2.63;;;21.50;99.90;;;;;;5033201;28;20710;-58
2023/08/19 04:25:11;;;;;;;3.38;2.60;;;21.50;99.90;;;;;;5033161;28;20218;-59
2023/08/19 04:27:38;;;;;;;7.57;2.90;;;21.40;99.90;;;;;;5033105;28;20213;-60
2023/08/19 04:30:06;;;;;;;4.50;2.60;;;21.30;99.90;;;;;;5033216;28;20209;-60
2023/08/19 04:32:32;;;;;;;6.72;2.72;;;21.40;99.90;;;;;;5033083;28;20658;-59
2023/08/19 04:35:00;;;;;;;7.15;2.72;;;21.40;99.90;;;;;;5033068;28;20273;-60
2023/08/19 04:37:27;;;;;;;6.75;2.80;;;21.40;99.90;;;;;;5032794;28;20210;-58
2023/08/19 04:39:53;;;;;;;5.28;2.70;;;21.40;99.90;;;;;;5032834;28;20218;-59
2023/08/19 04:42:20;;;;;;;7.03;2.70;;;21.30;99.90;;;;;;5032953;28;20238;-59
2023/08/19 04:44:47;;;;;;;5.65;2.65;;;21.30;99.90;;;;;;5032997;28;20214;-59
2023/08/19 04:47:14;;;;;;;4.20;2.50;;;21.20;99.90;;;;;;5032514;28;20206;-59
2023/08/19 04:49:41;;;;;;;4.05;2.70;;;21.20;99.90;;;;;;5032787;28;20689;-60
2023/08/19 04:52:08;;;;;;;3.88;2.70;;;21.20;99.90;;;;;;5033002;28;20403;-58
2023/08/19 04:54:35;;;;;;;5.18;2.65;;;21.20;99.90;;;;;;5032964;28;20214;-58
2023/08/19 04:57:03;;;;;;;5.95;2.95;;;21.10;99.90;;;;;;5032528;28;20213;-58
2023/08/19 04:59:30;;;;;;;2.70;2.50;;;21.20;99.90;;;;;;5032597;28;20388;-58
2023/08/19 05:01:57;;;;;;;4.47;2.97;;;21.40;99.90;;;;;;5032707;28;20217;-58
2023/08/19 05:04:24;;;;;;;5.00;2.55;;;21.50;99.90;;;;;;5032523;28;20218;-59
2023/08/19 05:06:50;;;;;;;3.20;2.55;;;21.60;99.90;;;;;;5031962;28;20229;-59
2023/08/19 05:09:18;;;;;;;5.30;2.63;;;21.70;99.90;;;;;;5032524;28;20225;-58
2023/08/19 05:11:45;;;;;;;4.00;2.50;;;21.80;99.90;;;;;;5032217;28;20202;-57
2023/08/19 05:14:12;;;;;;;4.00;2.95;;;22.00;99.90;;;;;;5032258;28;20312;-59
2023/08/19 05:16:39;;;;;;;3.50;2.50;;;22.10;99.90;;;;;;5032103;28;20202;-59
2023/08/19 05:19:14;;;;;;;5.40;2.72;;;22.30;99.90;;;;;;5032068;28;20264;-59
2023/08/19 05:21:41;;;;;;;3.40;2.75;;;22.40;99.90;;;;;;5032120;28;20212;-59
2023/08/19 05:24:09;;;;;;;2.65;2.40;;;22.50;99.90;;;;;;5032033;28;20222;-59
2023/08/19 05:26:37;;;;;;;6.63;3.17;;;22.60;99.90;;;;;;5031782;28;20276;-58
2023/08/19 05:29:04;;;;;;;5.30;2.65;;;22.60;99.90;;;;;;5032135;28;20415;-58
2023/08/19 05:31:30;;;;;;;3.20;2.55;;;22.70;99.90;;;;;;5031592;28;20264;-59
2023/08/19 05:33:57;;;;;;;4.32;2.58;;;22.80;99.90;;;;;;5031912;28;20257;-59
2023/08/19 05:36:24;;;;;;;4.28;3.17;;;22.90;99.90;;;;;;5031715;28;20206;-59
2023/08/19 05:38:51;;;;;;;4.55;2.72;;;23.00;99.90;;;;;;5032051;28;20220;-58
2023/08/19 05:41:17;;;;;;;3.63;2.85;;;23.00;99.90;;;;;;5031857;28;20238;-58
2023/08/19 05:43:45;;;;;;;3.25;2.55;;;23.10;99.90;;;;;;5031534;28;20238;-58
2023/08/19 05:46:12;;;;;;;7.15;2.80;;;23.10;99.90;;;;;;5031361;28;20317;-58
2023/08/19 05:48:39;;;;;;;9.13;6.15;;;23.20;99.90;;;;;;5031640;28;20210;-58
2023/08/19 05:51:06;;;;;;;4.20;3.03;;;23.30;99.90;;;;;;5031675;28;20573;-57
2023/08/19 05:53:33;;;;;;;3.97;2.38;;;23.50;99.90;;;;;;5031673;28;20879;-57
2023/08/19 05:56:00;;;;;;;4.78;2.70;;;24.20;99.90;;;;;;5031384;28;20302;-59
2023/08/19 05:58:27;;;;;;;3.65;2.22;;;25.10;99.90;;;;;;5031524;28;20298;-59
2023/08/19 06:00:58;;;;;;;2.45;2.10;;;26.50;99.90;;;;;;5031463;28;20215;-59
2023/08/19 06:03:25;;;;;;;4.63;2.30;;;28.30;99.90;;;;;;5031599;28;20233;-59
2023/08/19 06:05:52;;;;;;;4.30;2.25;;;30.00;99.90;;;;;;5031212;28;20225;-58
2023/08/19 06:08:19;;;;;;;3.38;2.33;;;31.40;99.90;;;;;;5031439;28;20217;-58
2023/08/19 06:10:46;;;;;;;5.22;2.60;;;32.70;99.90;;;;;;5031497;28;20206;-59
2023/08/19 06:13:13;;;;;;;5.05;2.22;;;33.80;99.90;;;;;;5031238;28;20233;-59
2023/08/19 06:15:40;;;;;;;3.50;2.10;;;34.80;99.90;;;;;;5031080;28;20202;-60
2023/08/19 06:18:09;;;;;;;3.58;2.45;;;35.70;99.10;;;;;;5031181;28;20202;-57
2023/08/19 06:20:35;;;;;;;3.58;2.30;;;36.40;96.70;;;;;;5031299;28;20218;-58
2023/08/19 06:23:02;;;;;;;3.38;2.20;;;37.00;94.90;;;;;;5031190;28;20310;-58
2023/08/19 06:25:29;;;;;;;2.72;2.10;;;37.80;91.80;;;;;;5032089;28;20510;-58
2023/08/19 06:27:56;;;;;;;5.07;1.95;;;38.00;90.30;;;;;;5030806;28;20213;-58
2023/08/19 06:30:22;;;;;;;3.72;2.00;;;38.40;88.20;;;;;;5031316;28;20206;-59
2023/08/19 06:32:49;;;;;;;4.72;1.90;;;39.10;84.20;;;;;;5031316;28;20235;-59
2023/08/19 06:35:18;;;;;;;3.30;1.90;;;39.70;79.60;;;;;;5031137;28;20284;-59
2023/08/19 06:37:51;;;;;;;4.40;2.30;;;40.10;77.30;;;;;;5030819;28;20213;-59
2023/08/19 06:40:21;;;;;;;2.80;2.20;;;40.60;73.80;;;;;;5030994;28;20252;-59
2023/08/19 06:42:49;;;;;;;5.05;2.50;;;40.90;72.80;;;;;;5031374;28;20248;-58
2023/08/19 06:45:17;;;;;;;3.90;2.00;;;41.40;71.20;;;;;;5035385;28;20300;-60
2023/08/19 06:47:45;;;;;;;3.60;1.67;;;42.20;68.70;;;;;;5034630;28;20593;-59
2023/08/19 06:50:14;;;;;;;6.35;2.20;;;42.70;65.30;;;;;;5035089;28;20201;-60
2023/08/19 06:52:42;;;;;;;3.72;2.13;;;43.10;63.70;;;;;;5034919;28;20229;-60
2023/08/19 06:55:10;;;;;;;4.75;1.80;;;43.80;60.50;;;;;;5034930;28;20267;-60
2023/08/19 06:57:47;;;;;;;5.13;2.08;;;44.40;58.70;;;;;;5034822;28;20206;-60
2023/08/19 07:00:15;;;;;;;5.57;2.13;;;44.60;57.70;;;;;;5035018;28;20326;-59
2023/08/19 07:02:43;;;;;;;3.22;1.73;;;44.60;56.10;;;;;;5034931;28;20229;-58
2023/08/19 07:05:13;;;;;;;5.38;2.03;;;43.40;56.30;;;;;;5034808;28;20209;-60
2023/08/19 07:07:46;;;;;;;5.13;2.00;;;42.40;57.40;;;;;;5034247;28;20225;-59
2023/08/19 07:10:15;;;;;;;4.05;2.00;;;42.00;58.20;;;;;;5034971;28;20304;-59
2023/08/19 07:12:42;;;;;;;2.55;1.58;;;40.80;60.30;;;;;;5034817;28;20225;-60
2023/08/19 07:15:12;;;;;;;6.50;3.28;;;40.80;61.50;;;;;;5034719;28;20212;-59
2023/08/19 07:17:42;;;;;;;4.97;2.70;;;41.10;59.90;;;;;;5034353;28;20214;-59
2023/08/19 07:20:11;;;;;;;5.20;2.00;;;41.60;59.00;;;;;;5034691;28;20674;-57
2023/08/19 07:22:39;;;;;;;3.33;1.58;;;42.40;57.90;;;;;;5034555;28;20233;-59
2023/08/19 07:25:09;;;;;;;5.38;2.00;;;43.60;56.40;;;;;;5034735;28;20213;-59
2023/08/19 07:27:36;;;;;;;6.25;2.15;;;44.70;54.30;;;;;;5034146;28;20337;-60
2023/08/19 07:30:05;;;;;;;5.60;2.00;;;45.30;53.00;;;;;;5034598;28;20202;-58
2023/08/19 07:32:32;;;;;;;4.43;1.90;;;44.90;53.30;;;;;;5034424;28;20221;-58
2023/08/19 07:34:59;;;;;;;4.53;2.63;;;43.60;54.50;;;;;;5034430;28;20209;-58
2023/08/19 07:37:26;;;;;;;4.32;2.00;;;42.10;56.10;;;;;;5034105;28;20670;-58
2023/08/19 07:39:53;;;;;;;2.78;2.10;;;41.10;57.00;;;;;;5034294;28;20209;-59
2023/08/19 07:42:21;;;;;;;3.03;1.80;;;40.20;58.60;;;;;;5034658;28;20291;-58
2023/08/19 07:44:48;;;;;;;4.75;2.10;;;39.70;59.60;;;;;;5034035;28;20205;-58
2023/08/19 07:47:15;;;;;;;3.53;2.05;;;40.40;59.00;;;;;;5033691;28;20249;-58
2023/08/19 07:49:42;;;;;;;4.95;1.90;;;41.50;57.30;;;;;;5034285;28;20209;-59
2023/08/19 07:52:08;;;;;;;2.28;1.95;;;42.60;55.60;;;;;;5033851;28;20574;-58
2023/08/19 07:54:35;;;;;;;3.70;1.95;;;43.30;54.20;;;;;;5033659;28;20293;-59
2023/08/19 07:57:02;;;;;;;4.97;2.00;;;43.60;53.50;;;;;;5033620;28;20210;-63
2023/08/19 07:59:30;;;;;;;5.93;2.20;;;44.00;52.80;;;;;;5013569;28;20256;-59
2023/08/19 08:01:57;;;;;;;2.58;1.73;;;44.10;52.80;;;;;;5012703;28;20265;-61
2023/08/19 08:04:24;;;;;;;4.45;2.40;;;44.30;52.70;;;;;;5013033;28;20234;-63
2023/08/19 08:06:51;;;;;;;4.43;2.40;;;44.60;52.20;;;;;;5012723;28;20226;-62
2023/08/19 08:09:18;;;;;;;4.00;2.20;;;44.70;52.20;;;;;;5028558;28;20210;-63
2023/08/19 08:11:47;;;;;;;4.38;2.05;;;44.60;51.70;;;;;;5032446;28;20205;-62
2023/08/19 08:14:14;;;;;;;5.45;1.98;;;44.80;51.30;;;;;;5032033;28;20225;-62
2023/08/19 08:16:42;;;;;;;5.43;2.33;;;44.80;50.80;;;;;;5031791;28;20568;-61
2023/08/19 08:19:09;;;;;;;5.85;1.88;;;44.70;50.70;;;;;;5032521;28;20209;-63
2023/08/19 08:21:35;;;;;;;4.63;1.90;;;44.90;50.40;;;;;;5032546;28;20229;-60
2023/08/19 08:24:03;;;;;;;3.55;1.95;;;45.10;49.90;;;;;;5032250;28;20232;-60
2023/08/19 08:26:29;;;;;;;4.53;1.92;;;45.00;50.20;;;;;;5032627;28;20291;-58
2023/08/19 08:28:56;;;;;;;3.75;1.83;;;44.20;50.90;;;;;;5032197;28;20213;-59
2023/08/19 08:31:23;;;;;;;4.88;2.05;;;42.70;52.70;;;;;;5032427;28;20212;-62
2023/08/19 08:33:51;;;;;;;7.57;2.20;;;41.30;54.60;;;;;;5032428;28;20225;-61
2023/08/19 08:36:18;;;;;;;4.43;2.20;;;40.00;56.30;;;;;;5017256;28;20209;-60
2023/08/19 08:38:45;;;;;;;4.93;2.40;;;39.00;57.70;;;;;;5012197;28;20687;-60
2023/08/19 08:41:13;;;;;;;4.70;2.20;;;37.80;59.60;;;;;;5012049;28;20578;-58
2023/08/19 08:43:40;;;;;;;5.30;2.10;;;36.80;61.50;;;;;;5011983;28;20312;-60
2023/08/19 08:46:07;;;;;;;3.90;2.45;;;36.10;64.00;;;;;;5011850;28;20297;-59
2023/08/19 08:48:36;;;;;;;3.42;2.33;;;35.40;66.50;;;;;;5012380;28;20203;-60
2023/08/19 08:51:05;;;;;;;6.40;2.67;;;34.90;69.00;;;;;;5012189;28;20207;-59
2023/08/19 08:53:32;;;;;;;6.18;2.42;;;34.10;69.70;;;;;;5011856;28;20253;-59
2023/08/19 08:56:00;;;;;;;4.53;2.72;;;33.60;72.00;;;;;;5011381;28;20254;-59
2023/08/19 08:58:26;;;;;;;8.60;2.83;;;33.10;73.50;;;;;;5012334;28;20294;-59
2023/08/19 09:00:55;;;;;;;6.80;2.50;;;33.00;74.00;;;;;;5012047;28;20215;-59
2023/08/19 09:03:26;;;;;;;5.47;2.55;;;32.80;74.20;;;;;;5011996;28;20237;-60
2023/08/19 09:05:58;;;;;;;5.43;2.60;;;32.70;74.60;;;;;;5011078;28;20246;-60
2023/08/19 09:08:31;;;;;;;6.72;2.60;;;32.60;75.60;;;;;;5011782;28;20250;-59
2023/08/19 09:11:00;;;;;;;5.07;2.40;;;32.70;76.80;;;;;;5012009;28;20203;-60
2023/08/19 09:13:27;;;;;;;5.78;2.47;;;32.70;77.40;;;;;;5011627;28;20234;-60
2023/08/19 09:15:54;;;;;;;3.58;2.15;;;32.60;77.40;;;;;;5011184;28;20577;-59
2023/08/19 09:18:22;;;;;;;4.97;2.58;;;32.50;76.80;;;;;;5011700;28;20206;-60
2023/08/19 09:20:49;;;;;;;2.67;2.40;;;32.40;75.80;;;;;;5011132;28;20456;-59
2023/08/19 09:23:16;;;;;;;5.50;2.75;;;32.40;79.70;;;;;;5011813;28;20227;-60
2023/08/19 09:25:45;;;;;;;7.45;2.50;;;32.30;80.10;;;;;;5011127;28;20471;-61
2023/08/19 09:28:17;;;;;;;6.60;2.60;;;32.20;80.10;;;;;;5011447;28;20223;-61
2023/08/19 09:30:44;;;;;;;5.93;2.60;;;32.20;79.00;;;;;;5011321;28;20242;-60
2023/08/19 09:33:19;;;;;;;7.47;2.75;;;32.20;81.40;;;;;;5011277;28;20227;-60
2023/08/19 09:35:46;;;;;;;5.70;2.47;;;32.20;80.80;;;;;;5010915;28;20214;-59
2023/08/19 09:38:20;;;;;;;4.75;2.33;;;32.30;80.30;;;;;;5011478;28;20214;-61
2023/08/19 09:40:59;;;;;;;5.10;2.38;;;32.30;79.50;;;;;;5010946;28;20218;-60
2023/08/19 09:43:27;;;;;;;4.00;2.45;;;32.40;80.30;;;;;;5011026;28;20313;-60
2023/08/19 09:45:57;;;;;;;6.63;2.67;;;32.40;80.20;;;;;;5010742;28;20210;-60
2023/08/19 09:48:24;;;;;;;6.88;2.60;;;32.60;80.40;;;;;;5011043;28;20313;-60
2023/08/19 09:50:50;;;;;;;4.88;2.67;;;32.60;80.90;;;;;;5010743;28;20210;-60
2023/08/19 09:53:18;;;;;;;3.90;2.22;;;32.80;78.10;;;;;;5010595;28;20638;-61
2023/08/19 09:55:46;;;;;;;4.82;3.05;;;32.80;76.90;;;;;;5010771;28;20222;-61
2023/08/19 09:58:15;;;;;;;4.60;2.47;;;32.90;74.70;;;;;;5010782;28;20202;-60
2023/08/19 10:00:42;;;;;;;5.70;2.35;;;33.10;72.60;;;;;;5010637;28;20215;-62
2023/08/19 10:03:09;;;;;;;5.28;2.47;;;33.30;70.20;;;;;;5011551;28;20226;-62
2023/08/19 10:05:38;;;;;;;3.47;2.10;;;33.50;70.30;;;;;;5011752;28;20691;-63
2023/08/19 10:08:08;;;;;;;6.20;2.60;;;33.60;68.80;;;;;;5011536;28;20233;-62
2023/08/19 10:10:38;;;;;;;8.65;2.67;;;33.80;67.40;;;;;;5011653;28;20218;-61
2023/08/19 10:13:07;;;;;;;6.47;2.55;;;33.90;67.30;;;;;;5011392;28;20610;-62
2023/08/19 10:15:39;;;;;;;7.53;2.67;;;34.10;66.70;;;;;;5011487;28;20652;-61
2023/08/19 10:18:15;;;;;;;6.95;2.65;;;34.10;66.90;;;;;;5011423;28;20237;-63
2023/08/19 10:20:44;;;;;;;5.78;2.60;;;34.20;67.60;;;;;;5011690;28;20210;-62
2023/08/19 10:23:12;;;;;;;6.78;2.78;;;34.20;66.00;;;;;;5011613;28;20238;-61
2023/08/19 10:25:42;;;;;;;9.85;2.70;;;34.30;66.70;;;;;;5011200;28;20239;-62
2023/08/19 10:28:12;;;;;;;6.65;2.60;;;34.40;66.60;;;;;;5011504;28;20230;-61
2023/08/19 10:30:40;;;;;;;8.07;2.50;;;34.40;65.30;;;;;;5011660;28;20207;-61
2023/08/19 10:33:30;;;;;;;5.97;2.40;;;34.50;65.40;;;;;;5011448;28;20269;-62
2023/08/19 10:35:59;;;;;;;3.15;2.10;;;34.60;66.40;;;;;;5011150;28;20302;-61
2023/08/19 10:38:25;;;;;;;12.02;2.80;;;34.60;66.00;;;;;;5011563;28;20227;-60
2023/08/19 10:41:03;;;;;;;7.10;2.60;;;34.80;65.80;;;;;;5011590;28;20213;-60
2023/08/19 10:43:48;;;;;;;6.25;2.70;;;34.80;65.30;;;;;;5011170;28;20292;-60
2023/08/19 10:46:19;;;;;;;8.00;2.80;;;34.80;65.70;;;;;;5011359;28;20211;-58
2023/08/19 10:48:46;;;;;;;5.03;2.50;;;34.80;66.20;;;;;;5011427;28;20317;-60
2023/08/19 10:51:13;;;;;;;7.47;2.90;;;34.90;64.60;;;;;;5011327;28;20624;-60
2023/08/19 10:53:48;;;;;;;6.18;2.78;;;34.90;66.10;;;;;;5011300;28;20223;-60
2023/08/19 10:56:17;;;;;;;3.63;2.38;;;34.80;65.10;;;;;;5011103;28;20563;-60
2023/08/19 10:58:44;;;;;;;4.03;2.35;;;35.00;65.00;;;;;;5010982;28;20202;-60
2023/08/19 11:01:11;;;;;;;5.78;2.60;;;35.00;65.20;;;;;;5011377;28;20289;-59
2023/08/19 11:03:39;;;;;;;5.28;2.80;;;34.90;65.50;;;;;;5011341;28;20258;-59
2023/08/19 11:06:07;;;;;;;10.52;2.80;;;35.00;65.00;;;;;;5010796;28;20253;-60
2023/08/19 11:08:42;;;;;;;7.30;2.80;;;35.20;64.80;;;;;;5010989;28;20318;-59
2023/08/19 11:11:09;;;;;;;3.80;2.40;;;35.40;63.70;;;;;;5011380;28;20225;-60
2023/08/19 11:13:35;;;;;;;6.07;2.58;;;35.70;62.60;;;;;;5010870;28;20227;-59
2023/08/19 11:16:03;;;;;;;6.55;2.53;;;36.00;62.30;;;;;;5011080;28;20542;-60
2023/08/19 11:18:31;;;;;;;5.05;2.42;;;36.20;61.10;;;;;;5011033;28;20269;-60
2023/08/19 11:20:59;;;;;;;5.95;2.38;;;36.30;60.50;;;;;;5011009;28;20210;-60
2023/08/19 11:23:27;;;;;;;7.38;2.72;;;36.40;60.40;;;;;;5010980;28;20314;-60
2023/08/19 11:25:54;;;;;;;5.03;2.28;;;36.60;59.80;;;;;;5010633;28;20203;-60
2023/08/19 11:28:21;;;;;;;6.80;2.42;;;36.70;59.50;;;;;;5011074;28;20226;-60
2023/08/19 11:30:48;;;;;;;5.75;2.55;;;36.80;59.40;;;;;;5014446;28;20272;-59
2023/08/19 11:33:18;;;;;;;7.68;2.85;;;36.90;58.60;;;;;;5014538;28;20227;-60
2023/08/19 11:35:46;;;;;;;4.57;2.35;;;37.00;58.20;;;;;;5014622;28;20261;-60
2023/08/19 11:38:15;;;;;;;7.35;2.58;;;37.00;57.40;;;;;;5014529;28;20203;-60
2023/08/19 11:40:42;;;;;;;4.53;2.60;;;37.00;56.80;;;;;;5014230;28;20734;-60
2023/08/19 11:43:10;;;;;;;9.85;2.67;;;37.10;56.30;;;;;;5013905;28;20296;-60
2023/08/19 11:45:38;;;;;;;6.40;2.45;;;37.20;56.10;;;;;;5014255;28;20210;-60
2023/08/19 11:48:05;;;;;;;7.03;2.45;;;37.30;55.80;;;;;;5013957;28;20314;-60
2023/08/19 11:50:34;;;;;;;4.28;2.22;;;37.40;54.70;;;;;;5014150;28;20214;-60
2023/08/19 11:53:02;;;;;;;5.07;2.33;;;37.40;54.60;;;;;;5013896;28;20667;-60
2023/08/19 11:55:30;;;;;;;5.18;2.40;;;37.40;55.40;;;;;;5013892;28;20262;-61
2023/08/19 11:57:57;;;;;;;3.95;2.17;;;37.40;54.70;;;;;;5013762;28;20245;-59
2023/08/19 12:00:26;;;;;;;6.35;2.22;;;37.30;54.60;;;;;;5013953;28;20222;-61
2023/08/19 12:02:53;;;;;;;5.97;2.38;;;37.30;54.50;;;;;;5013865;28;20638;-60
2023/08/19 12:05:23;;;;;;;5.75;2.22;;;37.40;54.70;;;;;;5013942;28;20261;-61
2023/08/19 12:07:50;;;;;;;3.33;1.92;;;37.40;55.00;;;;;;5013629;28;20231;-60
2023/08/19 12:10:17;;;;;;;5.95;2.35;;;37.50;56.00;;;;;;5013896;28;20210;-61
2023/08/19 12:12:58;;;;;;;7.38;2.67;;;37.40;55.70;;;;;;5013646;28;20742;-60
2023/08/19 12:15:24;;;;;;;6.75;2.70;;;37.50;55.60;;;;;;5013832;28;20245;-59
2023/08/19 12:17:51;;;;;;;5.72;2.45;;;37.50;56.60;;;;;;5013276;28;20203;-59
2023/08/19 12:20:18;;;;;;;6.22;2.30;;;37.60;55.80;;;;;;5013384;28;20211;-60
2023/08/19 12:22:45;;;;;;;4.38;2.28;;;37.60;56.70;;;;;;5013593;28;20230;-60
2023/08/19 12:25:11;;;;;;;4.15;2.67;;;37.50;57.10;;;;;;5013993;28;20585;-60
2023/08/19 12:27:38;;;;;;;5.90;2.70;;;37.50;57.30;;;;;;5013010;28;20230;-60
2023/08/19 12:30:07;;;;;;;6.70;2.60;;;37.70;56.90;;;;;;5013570;28;20215;-61
2023/08/19 12:32:34;;;;;;;5.00;2.45;;;37.70;57.20;;;;;;5013198;28;20606;-60
2023/08/19 12:35:01;;;;;;;4.47;2.75;;;37.60;57.50;;;;;;5013399;28;20207;-61
2023/08/19 12:37:27;;;;;;;7.25;2.42;;;37.50;57.40;;;;;;5013199;28;20210;-61
2023/08/19 12:39:54;;;;;;;5.32;2.60;;;37.40;58.20;;;;;;5012859;28;20211;-60
2023/08/19 12:42:21;;;;;;;6.28;2.53;;;37.30;58.80;;;;;;5012454;28;20243;-60
2023/08/19 12:44:47;;;;;;;9.60;2.55;;;37.30;59.20;;;;;;5013206;28;20252;-61
2023/08/19 12:47:15;;;;;;;5.15;2.42;;;37.20;58.80;;;;;;5012622;28;20206;-58
2023/08/19 12:49:42;;;;;;;5.88;2.45;;;37.00;58.70;;;;;;5013272;28;20218;-60
2023/08/19 12:52:09;;;;;;;5.25;2.30;;;36.90;58.40;;;;;;5013157;28;20214;-59